sensor_id;sensor_type;location;lat;lon;timestamp;P1;durP1;ratioP1;P2;durP2;ratioP2
24631;SDS011;59977;48.782;9.190;2023-01-24T00:00:49;27.70;;;16.77;;
24631;SDS011;59977;48.782;9.190;2023-01-24T00:03:15;29.58;;;17.08;;
24631;SDS011;59977;48.782;9.190;2023-01-24T00:05:41;27.83;;;16.83;;
24631;SDS011;59977;48.782;9.190;2023-01-24T00:08:10;27.45;;;16.95;;
24631;SDS011;59977;48.782;9.190;2023-01-24T00:10:37;26.30;;;17.02;;
24631;SDS011;59977;48.782;9.190;2023-01-24T00:13:03;26.63;;;17.27;;
24631;SDS011;59977;48.782;9.190;2023-01-24T00:15:29;27.85;;;16.88;;
24631;SDS011;59977;48.782;9.190;2023-01-24T00:17:55;28.98;;;17.35;;
24631;SDS011;59977;48.782;9.190;2023-01-24T00:20:20;24.80;;;15.48;;
24631;SDS011;59977;48.782;9.190;2023-01-24T00:22:46;25.83;;;15.77;;
24631;SDS011;59977;48.782;9.190;2023-01-24T00:25:12;24.92;;;14.90;;
24631;SDS011;59977;48.782;9.190;2023-01-24T00:27:37;28.00;;;16.08;;
24631;SDS011;59977;48.782;9.190;2023-01-24T00:30:04;23.60;;;15.50;;
24631;SDS011;59977;48.782;9.190;2023-01-24T00:32:30;23.42;;;15.20;;
24631;SDS011;59977;48.782;9.190;2023-01-24T00:34:57;24.98;;;15.23;;
24631;SDS011;59977;48.782;9.190;2023-01-24T00:37:22;25.30;;;15.50;;
24631;SDS011;59977;48.782;9.190;2023-01-24T00:39:48;23.92;;;15.30;;
24631;SDS011;59977;48.782;9.190;2023-01-24T00:42:14;27.38;;;15.63;;
24631;SDS011;59977;48.782;9.190;2023-01-24T00:44:39;22.73;;;14.63;;
24631;SDS011;59977;48.782;9.190;2023-01-24T00:47:05;25.17;;;14.88;;
24631;SDS011;59977;48.782;9.190;2023-01-24T00:49:30;22.60;;;13.45;;
24631;SDS011;59977;48.782;9.190;2023-01-24T00:51:56;23.33;;;15.55;;
24631;SDS011;59977;48.782;9.190;2023-01-24T00:54:22;21.25;;;13.93;;
24631;SDS011;59977;48.782;9.190;2023-01-24T00:56:47;23.17;;;14.30;;
24631;SDS011;59977;48.782;9.190;2023-01-24T00:59:13;22.83;;;13.77;;
24631;SDS011;59977;48.782;9.190;2023-01-24T01:01:38;19.35;;;12.88;;
24631;SDS011;59977;48.782;9.190;2023-01-24T01:04:04;22.38;;;13.43;;
24631;SDS011;59977;48.782;9.190;2023-01-24T01:06:30;21.23;;;13.32;;
24631;SDS011;59977;48.782;9.190;2023-01-24T01:08:55;21.52;;;13.70;;
24631;SDS011;59977;48.782;9.190;2023-01-24T01:11:21;22.35;;;13.95;;
24631;SDS011;59977;48.782;9.190;2023-01-24T01:13:47;21.83;;;13.68;;
24631;SDS011;59977;48.782;9.190;2023-01-24T01:16:14;23.05;;;13.60;;
24631;SDS011;59977;48.782;9.190;2023-01-24T01:18:47;23.80;;;14.13;;
24631;SDS011;59977;48.782;9.190;2023-01-24T01:21:16;22.77;;;13.85;;
24631;SDS011;59977;48.782;9.190;2023-01-24T01:23:43;19.02;;;12.35;;
24631;SDS011;59977;48.782;9.190;2023-01-24T01:26:13;20.92;;;13.43;;
24631;SDS011;59977;48.782;9.190;2023-01-24T01:28:40;22.67;;;14.43;;
24631;SDS011;59977;48.782;9.190;2023-01-24T01:31:06;21.65;;;14.45;;
24631;SDS011;59977;48.782;9.190;2023-01-24T01:33:32;20.83;;;13.60;;
24631;SDS011;59977;48.782;9.190;2023-01-24T01:35:57;21.50;;;14.15;;
24631;SDS011;59977;48.782;9.190;2023-01-24T01:38:23;23.25;;;14.70;;
24631;SDS011;59977;48.782;9.190;2023-01-24T01:40:50;20.58;;;13.80;;
24631;SDS011;59977;48.782;9.190;2023-01-24T01:43:17;21.02;;;14.50;;
24631;SDS011;59977;48.782;9.190;2023-01-24T01:45:46;21.80;;;13.13;;
24631;SDS011;59977;48.782;9.190;2023-01-24T01:53:52;23.48;;;13.80;;
24631;SDS011;59977;48.782;9.190;2023-01-24T01:56:21;22.45;;;14.18;;
24631;SDS011;59977;48.782;9.190;2023-01-24T01:58:53;23.15;;;13.70;;
24631;SDS011;59977;48.782;9.190;2023-01-24T02:01:23;22.90;;;14.43;;
24631;SDS011;59977;48.782;9.190;2023-01-24T02:03:49;24.92;;;15.68;;
24631;SDS011;59977;48.782;9.190;2023-01-24T02:09:23;24.65;;;14.77;;
24631;SDS011;59977;48.782;9.190;2023-01-24T02:11:54;21.02;;;14.02;;
24631;SDS011;59977;48.782;9.190;2023-01-24T02:14:24;24.30;;;14.30;;
24631;SDS011;59977;48.782;9.190;2023-01-24T02:17:09;22.75;;;14.13;;
24631;SDS011;59977;48.782;9.190;2023-01-24T02:19:45;24.42;;;14.82;;
24631;SDS011;59977;48.782;9.190;2023-01-24T02:22:17;23.83;;;14.15;;
24631;SDS011;59977;48.782;9.190;2023-01-24T02:27:55;21.05;;;14.25;;
24631;SDS011;59977;48.782;9.190;2023-01-24T02:30:23;21.42;;;13.70;;
24631;SDS011;59977;48.782;9.190;2023-01-24T02:32:49;24.75;;;14.60;;
24631;SDS011;59977;48.782;9.190;2023-01-24T02:35:24;24.08;;;14.75;;
24631;SDS011;59977;48.782;9.190;2023-01-24T02:37:52;24.02;;;14.25;;
24631;SDS011;59977;48.782;9.190;2023-01-24T02:40:21;22.35;;;13.98;;
24631;SDS011;59977;48.782;9.190;2023-01-24T02:42:47;23.23;;;14.27;;
24631;SDS011;59977;48.782;9.190;2023-01-24T02:45:15;23.23;;;14.48;;
24631;SDS011;59977;48.782;9.190;2023-01-24T02:47:45;24.90;;;14.77;;
24631;SDS011;59977;48.782;9.190;2023-01-24T02:50:13;23.98;;;15.00;;
24631;SDS011;59977;48.782;9.190;2023-01-24T02:52:43;25.02;;;14.52;;
24631;SDS011;59977;48.782;9.190;2023-01-24T02:55:31;23.38;;;14.25;;
24631;SDS011;59977;48.782;9.190;2023-01-24T02:57:57;22.60;;;14.52;;
24631;SDS011;59977;48.782;9.190;2023-01-24T03:00:33;22.90;;;14.18;;
24631;SDS011;59977;48.782;9.190;2023-01-24T03:03:06;22.42;;;13.80;;
24631;SDS011;59977;48.782;9.190;2023-01-24T03:05:33;22.90;;;13.90;;
24631;SDS011;59977;48.782;9.190;2023-01-24T03:08:11;22.48;;;14.43;;
24631;SDS011;59977;48.782;9.190;2023-01-24T03:10:37;25.02;;;15.07;;
24631;SDS011;59977;48.782;9.190;2023-01-24T03:13:03;23.48;;;14.27;;
24631;SDS011;59977;48.782;9.190;2023-01-24T03:15:47;28.10;;;15.32;;
24631;SDS011;59977;48.782;9.190;2023-01-24T03:18:32;23.60;;;14.38;;
24631;SDS011;59977;48.782;9.190;2023-01-24T03:21:16;23.13;;;14.20;;
24631;SDS011;59977;48.782;9.190;2023-01-24T03:24:00;24.55;;;13.95;;
24631;SDS011;59977;48.782;9.190;2023-01-24T03:26:44;22.05;;;14.07;;
24631;SDS011;59977;48.782;9.190;2023-01-24T03:29:28;23.15;;;14.50;;
24631;SDS011;59977;48.782;9.190;2023-01-24T03:32:12;20.73;;;13.48;;
24631;SDS011;59977;48.782;9.190;2023-01-24T03:34:56;23.67;;;14.57;;
24631;SDS011;59977;48.782;9.190;2023-01-24T03:37:22;25.00;;;14.43;;
24631;SDS011;59977;48.782;9.190;2023-01-24T03:40:12;24.20;;;14.57;;
24631;SDS011;59977;48.782;9.190;2023-01-24T03:42:39;24.73;;;14.20;;
24631;SDS011;59977;48.782;9.190;2023-01-24T03:45:18;25.05;;;14.88;;
24631;SDS011;59977;48.782;9.190;2023-01-24T03:47:49;24.73;;;14.77;;
24631;SDS011;59977;48.782;9.190;2023-01-24T03:50:26;25.13;;;15.23;;
24631;SDS011;59977;48.782;9.190;2023-01-24T03:53:22;23.90;;;14.93;;
24631;SDS011;59977;48.782;9.190;2023-01-24T03:55:53;26.27;;;15.57;;
24631;SDS011;59977;48.782;9.190;2023-01-24T03:58:24;23.92;;;14.68;;
24631;SDS011;59977;48.782;9.190;2023-01-24T04:00:51;22.23;;;14.25;;
24631;SDS011;59977;48.782;9.190;2023-01-24T04:03:17;24.65;;;14.88;;
24631;SDS011;59977;48.782;9.190;2023-01-24T04:05:45;27.10;;;16.45;;
24631;SDS011;59977;48.782;9.190;2023-01-24T04:08:12;24.05;;;15.27;;
24631;SDS011;59977;48.782;9.190;2023-01-24T04:10:37;26.55;;;15.63;;
24631;SDS011;59977;48.782;9.190;2023-01-24T04:13:03;29.52;;;15.43;;
24631;SDS011;59977;48.782;9.190;2023-01-24T04:15:29;26.80;;;15.43;;
24631;SDS011;59977;48.782;9.190;2023-01-24T04:17:56;26.25;;;15.20;;
24631;SDS011;59977;48.782;9.190;2023-01-24T04:20:23;25.42;;;15.27;;
24631;SDS011;59977;48.782;9.190;2023-01-24T04:22:49;26.50;;;15.68;;
24631;SDS011;59977;48.782;9.190;2023-01-24T04:25:15;25.67;;;15.23;;
24631;SDS011;59977;48.782;9.190;2023-01-24T04:27:41;27.63;;;16.45;;
24631;SDS011;59977;48.782;9.190;2023-01-24T04:30:07;28.48;;;15.55;;
24631;SDS011;59977;48.782;9.190;2023-01-24T04:32:35;26.60;;;16.55;;
24631;SDS011;59977;48.782;9.190;2023-01-24T04:35:01;28.13;;;15.82;;
24631;SDS011;59977;48.782;9.190;2023-01-24T04:37:28;29.00;;;16.65;;
24631;SDS011;59977;48.782;9.190;2023-01-24T04:39:54;26.33;;;16.05;;
24631;SDS011;59977;48.782;9.190;2023-01-24T04:42:19;26.83;;;16.35;;
24631;SDS011;59977;48.782;9.190;2023-01-24T04:44:45;28.38;;;16.13;;
24631;SDS011;59977;48.782;9.190;2023-01-24T04:47:11;27.17;;;16.10;;
24631;SDS011;59977;48.782;9.190;2023-01-24T04:49:36;29.67;;;15.80;;
24631;SDS011;59977;48.782;9.190;2023-01-24T04:52:02;26.58;;;16.58;;
24631;SDS011;59977;48.782;9.190;2023-01-24T04:54:28;28.45;;;16.35;;
24631;SDS011;59977;48.782;9.190;2023-01-24T04:56:53;25.17;;;15.43;;
24631;SDS011;59977;48.782;9.190;2023-01-24T04:59:19;25.23;;;15.57;;
24631;SDS011;59977;48.782;9.190;2023-01-24T05:01:45;28.33;;;16.50;;
24631;SDS011;59977;48.782;9.190;2023-01-24T05:04:11;28.83;;;16.08;;
24631;SDS011;59977;48.782;9.190;2023-01-24T05:06:37;26.52;;;15.55;;
24631;SDS011;59977;48.782;9.190;2023-01-24T05:09:02;29.42;;;16.05;;
24631;SDS011;59977;48.782;9.190;2023-01-24T05:11:28;28.30;;;16.60;;
24631;SDS011;59977;48.782;9.190;2023-01-24T05:13:54;27.67;;;16.63;;
24631;SDS011;59977;48.782;9.190;2023-01-24T05:16:20;24.65;;;15.07;;
24631;SDS011;59977;48.782;9.190;2023-01-24T05:18:45;30.17;;;16.90;;
24631;SDS011;59977;48.782;9.190;2023-01-24T05:21:12;26.00;;;16.10;;
24631;SDS011;59977;48.782;9.190;2023-01-24T05:23:39;30.83;;;15.95;;
24631;SDS011;59977;48.782;9.190;2023-01-24T05:26:06;27.17;;;15.82;;
24631;SDS011;59977;48.782;9.190;2023-01-24T05:28:32;28.60;;;16.35;;
24631;SDS011;59977;48.782;9.190;2023-01-24T05:31:02;31.15;;;16.10;;
24631;SDS011;59977;48.782;9.190;2023-01-24T05:33:29;27.90;;;16.43;;
24631;SDS011;59977;48.782;9.190;2023-01-24T05:35:56;26.58;;;15.35;;
24631;SDS011;59977;48.782;9.190;2023-01-24T05:38:25;28.65;;;17.02;;
24631;SDS011;59977;48.782;9.190;2023-01-24T05:40:51;30.95;;;16.13;;
24631;SDS011;59977;48.782;9.190;2023-01-24T05:43:17;30.95;;;16.45;;
24631;SDS011;59977;48.782;9.190;2023-01-24T05:45:43;30.92;;;17.27;;
24631;SDS011;59977;48.782;9.190;2023-01-24T05:48:08;34.67;;;19.27;;
24631;SDS011;59977;48.782;9.190;2023-01-24T05:50:35;32.05;;;18.08;;
24631;SDS011;59977;48.782;9.190;2023-01-24T05:53:01;30.58;;;17.80;;
24631;SDS011;59977;48.782;9.190;2023-01-24T05:55:28;27.70;;;16.50;;
24631;SDS011;59977;48.782;9.190;2023-01-24T05:57:53;34.13;;;19.08;;
24631;SDS011;59977;48.782;9.190;2023-01-24T06:00:19;32.30;;;18.40;;
24631;SDS011;59977;48.782;9.190;2023-01-24T06:02:45;32.22;;;18.20;;
24631;SDS011;59977;48.782;9.190;2023-01-24T06:05:11;29.67;;;17.30;;
24631;SDS011;59977;48.782;9.190;2023-01-24T06:07:36;30.80;;;17.55;;
24631;SDS011;59977;48.782;9.190;2023-01-24T06:10:02;30.05;;;18.13;;
24631;SDS011;59977;48.782;9.190;2023-01-24T06:12:28;34.38;;;17.98;;
24631;SDS011;59977;48.782;9.190;2023-01-24T06:14:53;33.00;;;18.02;;
24631;SDS011;59977;48.782;9.190;2023-01-24T06:17:19;33.05;;;18.75;;
24631;SDS011;59977;48.782;9.190;2023-01-24T06:19:44;32.20;;;18.88;;
24631;SDS011;59977;48.782;9.190;2023-01-24T06:22:20;32.88;;;18.58;;
24631;SDS011;59977;48.782;9.190;2023-01-24T06:24:50;34.10;;;18.13;;
24631;SDS011;59977;48.782;9.190;2023-01-24T06:27:16;32.22;;;18.40;;
24631;SDS011;59977;48.782;9.190;2023-01-24T06:29:42;30.25;;;17.58;;
24631;SDS011;59977;48.782;9.190;2023-01-24T06:37:50;34.13;;;18.67;;
24631;SDS011;59977;48.782;9.190;2023-01-24T06:40:18;33.85;;;18.75;;
24631;SDS011;59977;48.782;9.190;2023-01-24T06:42:50;33.47;;;18.73;;
24631;SDS011;59977;48.782;9.190;2023-01-24T06:45:17;36.97;;;19.48;;
24631;SDS011;59977;48.782;9.190;2023-01-24T06:47:44;37.30;;;19.48;;
24631;SDS011;59977;48.782;9.190;2023-01-24T06:50:12;33.67;;;18.98;;
24631;SDS011;59977;48.782;9.190;2023-01-24T06:52:40;36.03;;;19.90;;
24631;SDS011;59977;48.782;9.190;2023-01-24T06:55:09;35.45;;;19.00;;
24631;SDS011;59977;48.782;9.190;2023-01-24T06:57:34;34.80;;;19.85;;
24631;SDS011;59977;48.782;9.190;2023-01-24T07:00:00;34.13;;;19.10;;
24631;SDS011;59977;48.782;9.190;2023-01-24T07:02:27;36.33;;;19.67;;
24631;SDS011;59977;48.782;9.190;2023-01-24T07:04:53;32.28;;;17.73;;
24631;SDS011;59977;48.782;9.190;2023-01-24T07:07:18;35.22;;;18.90;;
24631;SDS011;59977;48.782;9.190;2023-01-24T07:09:44;35.90;;;19.58;;
24631;SDS011;59977;48.782;9.190;2023-01-24T07:12:10;35.22;;;19.90;;
24631;SDS011;59977;48.782;9.190;2023-01-24T07:14:35;31.35;;;18.13;;
24631;SDS011;59977;48.782;9.190;2023-01-24T07:17:01;37.78;;;19.20;;
24631;SDS011;59977;48.782;9.190;2023-01-24T07:19:27;38.63;;;18.88;;
24631;SDS011;59977;48.782;9.190;2023-01-24T07:21:53;36.00;;;18.63;;
24631;SDS011;59977;48.782;9.190;2023-01-24T07:24:21;33.80;;;18.75;;
24631;SDS011;59977;48.782;9.190;2023-01-24T07:26:52;34.13;;;18.45;;
24631;SDS011;59977;48.782;9.190;2023-01-24T07:29:18;36.00;;;18.75;;
24631;SDS011;59977;48.782;9.190;2023-01-24T07:31:44;32.25;;;18.80;;
24631;SDS011;59977;48.782;9.190;2023-01-24T07:34:12;32.90;;;18.65;;
24631;SDS011;59977;48.782;9.190;2023-01-24T07:36:40;34.03;;;18.27;;
24631;SDS011;59977;48.782;9.190;2023-01-24T07:39:07;35.55;;;17.73;;
24631;SDS011;59977;48.782;9.190;2023-01-24T07:41:32;30.05;;;17.73;;
24631;SDS011;59977;48.782;9.190;2023-01-24T07:44:00;32.42;;;18.30;;
24631;SDS011;59977;48.782;9.190;2023-01-24T07:46:29;35.42;;;17.90;;
24631;SDS011;59977;48.782;9.190;2023-01-24T07:48:58;32.20;;;17.52;;
24631;SDS011;59977;48.782;9.190;2023-01-24T07:51:24;33.47;;;17.42;;
24631;SDS011;59977;48.782;9.190;2023-01-24T07:53:50;35.20;;;18.90;;
24631;SDS011;59977;48.782;9.190;2023-01-24T07:56:16;35.30;;;18.75;;
24631;SDS011;59977;48.782;9.190;2023-01-24T07:58:42;32.80;;;18.23;;
24631;SDS011;59977;48.782;9.190;2023-01-24T08:01:08;31.27;;;18.17;;
24631;SDS011;59977;48.782;9.190;2023-01-24T08:03:33;30.08;;;17.00;;
24631;SDS011;59977;48.782;9.190;2023-01-24T08:05:59;31.10;;;18.33;;
24631;SDS011;59977;48.782;9.190;2023-01-24T08:08:28;34.58;;;18.30;;
24631;SDS011;59977;48.782;9.190;2023-01-24T08:10:53;37.42;;;18.70;;
24631;SDS011;59977;48.782;9.190;2023-01-24T08:13:19;35.30;;;18.45;;
24631;SDS011;59977;48.782;9.190;2023-01-24T08:15:46;36.45;;;18.25;;
24631;SDS011;59977;48.782;9.190;2023-01-24T08:18:12;35.10;;;18.13;;
24631;SDS011;59977;48.782;9.190;2023-01-24T08:20:38;34.53;;;18.27;;
24631;SDS011;59977;48.782;9.190;2023-01-24T08:23:03;35.55;;;17.23;;
24631;SDS011;59977;48.782;9.190;2023-01-24T08:25:29;30.25;;;16.95;;
24631;SDS011;59977;48.782;9.190;2023-01-24T08:27:56;31.50;;;17.58;;
24631;SDS011;59977;48.782;9.190;2023-01-24T08:30:22;37.10;;;17.52;;
24631;SDS011;59977;48.782;9.190;2023-01-24T08:32:48;26.90;;;16.15;;
24631;SDS011;59977;48.782;9.190;2023-01-24T08:35:13;30.40;;;17.10;;
24631;SDS011;59977;48.782;9.190;2023-01-24T08:37:39;33.95;;;17.08;;
24631;SDS011;59977;48.782;9.190;2023-01-24T08:40:05;30.08;;;16.83;;
24631;SDS011;59977;48.782;9.190;2023-01-24T08:42:31;33.40;;;17.35;;
24631;SDS011;59977;48.782;9.190;2023-01-24T08:44:57;30.63;;;16.65;;
24631;SDS011;59977;48.782;9.190;2023-01-24T08:47:22;29.05;;;16.77;;
24631;SDS011;59977;48.782;9.190;2023-01-24T08:49:48;32.90;;;17.45;;
24631;SDS011;59977;48.782;9.190;2023-01-24T08:52:13;30.63;;;16.92;;
24631;SDS011;59977;48.782;9.190;2023-01-24T08:54:39;31.52;;;17.02;;
24631;SDS011;59977;48.782;9.190;2023-01-24T08:57:05;35.70;;;17.17;;
24631;SDS011;59977;48.782;9.190;2023-01-24T08:59:32;30.75;;;17.40;;
24631;SDS011;59977;48.782;9.190;2023-01-24T09:01:58;30.60;;;17.77;;
24631;SDS011;59977;48.782;9.190;2023-01-24T09:04:24;30.38;;;17.08;;
24631;SDS011;59977;48.782;9.190;2023-01-24T09:06:51;33.78;;;16.80;;
24631;SDS011;59977;48.782;9.190;2023-01-24T09:09:17;30.85;;;16.00;;
24631;SDS011;59977;48.782;9.190;2023-01-24T09:11:43;28.48;;;15.77;;
24631;SDS011;59977;48.782;9.190;2023-01-24T09:14:09;32.60;;;16.80;;
24631;SDS011;59977;48.782;9.190;2023-01-24T09:16:34;31.65;;;16.52;;
24631;SDS011;59977;48.782;9.190;2023-01-24T09:19:00;31.30;;;16.02;;
24631;SDS011;59977;48.782;9.190;2023-01-24T09:21:26;32.55;;;15.93;;
24631;SDS011;59977;48.782;9.190;2023-01-24T09:23:54;29.05;;;16.00;;
24631;SDS011;59977;48.782;9.190;2023-01-24T09:26:20;28.70;;;15.52;;
24631;SDS011;59977;48.782;9.190;2023-01-24T09:28:46;37.92;;;17.42;;
24631;SDS011;59977;48.782;9.190;2023-01-24T09:31:12;26.88;;;16.00;;
24631;SDS011;59977;48.782;9.190;2023-01-24T09:33:38;31.88;;;16.75;;
24631;SDS011;59977;48.782;9.190;2023-01-24T09:36:04;32.15;;;16.08;;
24631;SDS011;59977;48.782;9.190;2023-01-24T09:38:30;30.08;;;16.55;;
24631;SDS011;59977;48.782;9.190;2023-01-24T09:43:59;25.88;;;14.93;;
24631;SDS011;59977;48.782;9.190;2023-01-24T09:46:32;29.10;;;14.45;;
24631;SDS011;59977;48.782;9.190;2023-01-24T09:49:09;25.80;;;14.48;;
24631;SDS011;59977;48.782;9.190;2023-01-24T09:52:00;26.40;;;13.77;;
24631;SDS011;59977;48.782;9.190;2023-01-24T09:57:26;26.75;;;13.75;;
24631;SDS011;59977;48.782;9.190;2023-01-24T09:59:58;24.73;;;13.77;;
24631;SDS011;59977;48.782;9.190;2023-01-24T10:02:47;27.67;;;14.85;;
24631;SDS011;59977;48.782;9.190;2023-01-24T10:05:13;29.20;;;14.18;;
24631;SDS011;59977;48.782;9.190;2023-01-24T10:07:56;34.45;;;14.00;;
24631;SDS011;59977;48.782;9.190;2023-01-24T10:10:42;27.08;;;14.30;;
24631;SDS011;59977;48.782;9.190;2023-01-24T10:18:46;21.58;;;12.32;;
24631;SDS011;59977;48.782;9.190;2023-01-24T10:24:26;24.25;;;12.60;;
24631;SDS011;59977;48.782;9.190;2023-01-24T10:26:57;30.15;;;13.30;;
24631;SDS011;59977;48.782;9.190;2023-01-24T10:29:25;19.77;;;11.70;;
24631;SDS011;59977;48.782;9.190;2023-01-24T10:32:11;21.65;;;12.27;;
24631;SDS011;59977;48.782;9.190;2023-01-24T10:34:43;19.88;;;11.40;;
24631;SDS011;59977;48.782;9.190;2023-01-24T10:37:17;19.55;;;11.63;;
24631;SDS011;59977;48.782;9.190;2023-01-24T10:39:46;22.55;;;12.40;;
24631;SDS011;59977;48.782;9.190;2023-01-24T10:42:18;22.45;;;11.95;;
24631;SDS011;59977;48.782;9.190;2023-01-24T10:44:53;24.88;;;12.25;;
24631;SDS011;59977;48.782;9.190;2023-01-24T10:50:13;20.40;;;11.05;;
24631;SDS011;59977;48.782;9.190;2023-01-24T10:52:41;23.15;;;11.32;;
24631;SDS011;59977;48.782;9.190;2023-01-24T10:55:30;17.05;;;10.35;;
24631;SDS011;59977;48.782;9.190;2023-01-24T10:58:01;17.95;;;10.73;;
24631;SDS011;59977;48.782;9.190;2023-01-24T11:00:47;17.92;;;10.35;;
24631;SDS011;59977;48.782;9.190;2023-01-24T11:03:28;18.20;;;10.18;;
24631;SDS011;59977;48.782;9.190;2023-01-24T11:05:55;18.05;;;10.75;;
24631;SDS011;59977;48.782;9.190;2023-01-24T11:08:23;19.08;;;10.27;;
24631;SDS011;59977;48.782;9.190;2023-01-24T11:10:59;21.35;;;10.73;;
24631;SDS011;59977;48.782;9.190;2023-01-24T11:15:59;20.40;;;10.70;;
24631;SDS011;59977;48.782;9.190;2023-01-24T11:18:52;21.55;;;10.82;;
24631;SDS011;59977;48.782;9.190;2023-01-24T11:21:23;24.20;;;11.18;;
24631;SDS011;59977;48.782;9.190;2023-01-24T11:26:31;19.70;;;11.80;;
24631;SDS011;59977;48.782;9.190;2023-01-24T11:31:32;21.65;;;10.77;;
24631;SDS011;59977;48.782;9.190;2023-01-24T11:42:28;20.55;;;10.75;;
24631;SDS011;59977;48.782;9.190;2023-01-24T11:53:25;20.67;;;10.70;;
24631;SDS011;59977;48.782;9.190;2023-01-24T12:01:44;22.65;;;11.02;;
24631;SDS011;59977;48.782;9.190;2023-01-24T12:07:31;21.70;;;10.68;;
24631;SDS011;59977;48.782;9.190;2023-01-24T12:12:43;15.93;;;9.57;;
24631;SDS011;59977;48.782;9.190;2023-01-24T12:21:39;18.00;;;10.73;;
24631;SDS011;59977;48.782;9.190;2023-01-24T12:26:54;27.15;;;10.65;;
24631;SDS011;59977;48.782;9.190;2023-01-24T12:29:27;18.70;;;11.30;;
24631;SDS011;59977;48.782;9.190;2023-01-24T12:32:22;21.65;;;11.15;;
24631;SDS011;59977;48.782;9.190;2023-01-24T12:35:06;20.05;;;10.15;;
24631;SDS011;59977;48.782;9.190;2023-01-24T12:40:20;21.80;;;11.10;;
24631;SDS011;59977;48.782;9.190;2023-01-24T12:42:57;20.70;;;10.85;;
24631;SDS011;59977;48.782;9.190;2023-01-24T12:45:47;24.92;;;11.73;;
24631;SDS011;59977;48.782;9.190;2023-01-24T12:48:26;21.73;;;11.25;;
24631;SDS011;59977;48.782;9.190;2023-01-24T12:53:40;18.38;;;10.27;;
24631;SDS011;59977;48.782;9.190;2023-01-24T12:56:21;19.08;;;10.77;;
24631;SDS011;59977;48.782;9.190;2023-01-24T12:58:51;26.25;;;10.45;;
24631;SDS011;59977;48.782;9.190;2023-01-24T13:01:25;23.20;;;10.40;;
24631;SDS011;59977;48.782;9.190;2023-01-24T13:06:58;20.83;;;10.18;;
24631;SDS011;59977;48.782;9.190;2023-01-24T13:09:36;25.35;;;10.90;;
24631;SDS011;59977;48.782;9.190;2023-01-24T13:12:18;23.38;;;10.90;;
24631;SDS011;59977;48.782;9.190;2023-01-24T13:14:52;25.17;;;10.88;;
24631;SDS011;59977;48.782;9.190;2023-01-24T13:17:28;20.45;;;10.57;;
24631;SDS011;59977;48.782;9.190;2023-01-24T13:20:38;16.02;;;10.25;;
24631;SDS011;59977;48.782;9.190;2023-01-24T13:32:25;21.80;;;10.93;;
24631;SDS011;59977;48.782;9.190;2023-01-24T13:34:53;18.58;;;10.55;;
24631;SDS011;59977;48.782;9.190;2023-01-24T13:37:24;21.88;;;10.52;;
24631;SDS011;59977;48.782;9.190;2023-01-24T13:39:59;18.73;;;11.02;;
24631;SDS011;59977;48.782;9.190;2023-01-24T13:42:35;21.50;;;11.40;;
24631;SDS011;59977;48.782;9.190;2023-01-24T13:47:59;25.88;;;12.57;;
24631;SDS011;59977;48.782;9.190;2023-01-24T13:52:55;20.92;;;10.95;;
24631;SDS011;59977;48.782;9.190;2023-01-24T14:00:31;18.83;;;9.77;;
24631;SDS011;59977;48.782;9.190;2023-01-24T14:03:03;16.95;;;8.68;;
24631;SDS011;59977;48.782;9.190;2023-01-24T14:05:54;16.88;;;9.70;;
24631;SDS011;59977;48.782;9.190;2023-01-24T14:18:58;18.02;;;10.02;;
24631;SDS011;59977;48.782;9.190;2023-01-24T14:21:31;30.85;;;10.15;;
24631;SDS011;59977;48.782;9.190;2023-01-24T14:24:29;15.60;;;9.07;;
24631;SDS011;59977;48.782;9.190;2023-01-24T14:27:20;14.43;;;8.25;;
24631;SDS011;59977;48.782;9.190;2023-01-24T14:32:51;18.13;;;9.63;;
24631;SDS011;59977;48.782;9.190;2023-01-24T14:35:38;20.00;;;10.00;;
24631;SDS011;59977;48.782;9.190;2023-01-24T14:38:17;16.73;;;9.82;;
24631;SDS011;59977;48.782;9.190;2023-01-24T14:40:49;16.83;;;9.15;;
24631;SDS011;59977;48.782;9.190;2023-01-24T14:43:17;16.52;;;9.85;;
24631;SDS011;59977;48.782;9.190;2023-01-24T14:45:45;18.52;;;10.07;;
24631;SDS011;59977;48.782;9.190;2023-01-24T14:48:14;18.92;;;9.80;;
24631;SDS011;59977;48.782;9.190;2023-01-24T14:50:55;20.42;;;9.98;;
24631;SDS011;59977;48.782;9.190;2023-01-24T14:53:23;18.42;;;9.48;;
24631;SDS011;59977;48.782;9.190;2023-01-24T14:55:51;19.02;;;9.88;;
24631;SDS011;59977;48.782;9.190;2023-01-24T14:58:25;14.82;;;9.02;;
24631;SDS011;59977;48.782;9.190;2023-01-24T15:00:53;16.70;;;10.05;;
24631;SDS011;59977;48.782;9.190;2023-01-24T15:03:31;18.95;;;10.23;;
24631;SDS011;59977;48.782;9.190;2023-01-24T15:05:59;15.05;;;9.57;;
24631;SDS011;59977;48.782;9.190;2023-01-24T15:10:59;19.27;;;10.23;;
24631;SDS011;59977;48.782;9.190;2023-01-24T15:13:31;18.80;;;9.93;;
24631;SDS011;59977;48.782;9.190;2023-01-24T15:16:07;20.00;;;9.93;;
24631;SDS011;59977;48.782;9.190;2023-01-24T15:18:43;20.88;;;10.35;;
24631;SDS011;59977;48.782;9.190;2023-01-24T15:21:54;32.42;;;9.70;;
24631;SDS011;59977;48.782;9.190;2023-01-24T15:24:04;20.95;;;11.02;;
24631;SDS011;59977;48.782;9.190;2023-01-24T15:26:38;18.88;;;10.27;;
24631;SDS011;59977;48.782;9.190;2023-01-24T15:31:59;20.35;;;9.80;;
24631;SDS011;59977;48.782;9.190;2023-01-24T15:34:25;19.30;;;10.05;;
24631;SDS011;59977;48.782;9.190;2023-01-24T15:36:58;18.27;;;10.05;;
24631;SDS011;59977;48.782;9.190;2023-01-24T15:39:25;22.60;;;10.93;;
24631;SDS011;59977;48.782;9.190;2023-01-24T15:41:52;20.60;;;10.75;;
24631;SDS011;59977;48.782;9.190;2023-01-24T15:44:46;18.85;;;10.07;;
24631;SDS011;59977;48.782;9.190;2023-01-24T15:47:18;22.10;;;11.32;;
24631;SDS011;59977;48.782;9.190;2023-01-24T15:50:13;22.20;;;11.60;;
24631;SDS011;59977;48.782;9.190;2023-01-24T15:53:12;22.55;;;11.23;;
24631;SDS011;59977;48.782;9.190;2023-01-24T15:55:49;17.75;;;10.98;;
24631;SDS011;59977;48.782;9.190;2023-01-24T15:58:16;25.63;;;13.70;;
24631;SDS011;59977;48.782;9.190;2023-01-24T16:00:49;21.77;;;12.00;;
24631;SDS011;59977;48.782;9.190;2023-01-24T16:03:16;21.80;;;11.43;;
24631;SDS011;59977;48.782;9.190;2023-01-24T16:05:42;22.98;;;11.88;;
24631;SDS011;59977;48.782;9.190;2023-01-24T16:08:07;19.25;;;11.60;;
24631;SDS011;59977;48.782;9.190;2023-01-24T16:10:33;24.55;;;12.13;;
24631;SDS011;59977;48.782;9.190;2023-01-24T16:13:00;22.38;;;12.50;;
24631;SDS011;59977;48.782;9.190;2023-01-24T16:15:25;23.38;;;12.30;;
24631;SDS011;59977;48.782;9.190;2023-01-24T16:17:52;24.63;;;12.80;;
24631;SDS011;59977;48.782;9.190;2023-01-24T16:20:22;27.52;;;12.27;;
24631;SDS011;59977;48.782;9.190;2023-01-24T16:22:49;23.75;;;13.10;;
24631;SDS011;59977;48.782;9.190;2023-01-24T16:25:15;25.67;;;13.57;;
24631;SDS011;59977;48.782;9.190;2023-01-24T16:27:42;22.23;;;12.45;;
24631;SDS011;59977;48.782;9.190;2023-01-24T16:30:26;24.33;;;12.30;;
24631;SDS011;59977;48.782;9.190;2023-01-24T16:32:52;24.77;;;13.27;;
24631;SDS011;59977;48.782;9.190;2023-01-24T16:35:19;24.75;;;12.60;;
24631;SDS011;59977;48.782;9.190;2023-01-24T16:37:44;29.00;;;13.02;;
24631;SDS011;59977;48.782;9.190;2023-01-24T16:40:11;28.30;;;13.57;;
24631;SDS011;59977;48.782;9.190;2023-01-24T16:42:39;26.40;;;14.57;;
24631;SDS011;59977;48.782;9.190;2023-01-24T16:45:11;25.90;;;13.77;;
24631;SDS011;59977;48.782;9.190;2023-01-24T16:47:38;25.77;;;13.82;;